Airfield :
LOGIN :

Register | Disclaimer

   EN    FR    IT 

 










Legend :    VFR   Marginal VFR   IFR   Intensive IFR   Very Intensive IFR
Visi :
Ceiling :
>= 8 km
>= 3000ft
5 to 8 km
1000 to 3000 ft
1500m to 5 km
500 to 1000 ft
800 to 1500m
200 to 500 ft
< 800m
< 200 ft
Symbols :   Thunderstorms  Fog  Heavy snow  Heavy precipitations  Wind > 20 kt
SIGMETs :     Misc.  Thunderstorms  Icing  Turbulence  Mountain Waves  Volcanic Ashes







- Airport Elevation : 778 ft
- IATA code : BRQ


LKTB - Brno-Turany

CURRENT METAR :
  • 120753Z 29005KT 9999 -SN BKN017 01/M01 Q1018 R27/32//95 RMK REG QNH 1014

EXPIRED METARs :
  • 120730Z 30005KT 9999 -SN SCT046 01/M01 Q1018 R27/32//95 NOSIG
  • 120700Z 30005KT 9999 -SN SCT046 00/M01 Q1017 R27/32//95 NOSIG
  • 120630Z 29006KT 9999 -SN BKN046 01/M01 Q1017 R27/32//95 NOSIG
  • 120603Z 31005KT 9999 -SN BKN046 01/M01 Q1017 R27/32//95 RMK REG QNH 1014
  • 120530Z 31007KT 9999 OVC047 00/M02 Q1017 R27/29//95 NOSIG
  • 120500Z 32006KT 9999 -SN NSC 01/M02 Q1016 R27/29//95 NOSIG
  • 120455Z 32006KT 9999 -SN NSC 01/M02 Q1016 R27/29//95 RMK REG QNH 1013

TAF TAF LKTB
Valid from the 12 at 06:00 until the 13 at 12:00 UTC


120500Z 1206/1312 33007KT 9999 BKN035
TEMPO 1206/1214 7000 -SNRA BKN015
BECMG 1214/1216 CAVOK
BECMG 1222/1300 05008KT
No reported NOTAMs for that airfield.



MET'MAP, your aeronautical weather chart ! - Copyright ORBIFLY December 2007 - Disclaimer

ORBIFLY MET'MAP TEAM :

Programming & Development : Alexandra Zaïnal
Concept & Development : Baudouin d'Aumeries
Co-Development & Prog : Marc-Olivier Méhu
Technical & hardware support : Manuel Goepfert

Contact : metmap@orbifly.com




SOURCES & CREDITS :

   NOAA